Main page
METAR-TAF:

METAR-TAF

Airports :

Hakkari–Yüksekova Airport

Yüksekova, Turkey

latitude: 37-33-06N, longitude: 44-14-01E, elevation: 1950 m

Current weather observation

The report was made 2 hours and 37 minutes ago, at 12:50 UTC
Wind 7 kt from the South/Southwest, varying between South/Southeast and West/Southwest
Temperature 27°C
Humidity 24%
Pressure 1011 hPa
Visibility 10 km or more
Scattered clouds at a height of 4000 ft

METAR: LTCW 231250Z 20007KT 150V240 9999 SCT040 27/05 Q1011

Time: 18:27 (15:27 UTC)

Forecast

The report was made 1 hour and 47 minutes ago, at 13:40 UTC
Forecast valid from 23 at 15 UTC to 23 at 24 UTC
Wind 2 kt from variable directions
Visibility 10 km or more
Scattered clouds at a height of 3500 ft

TAF: LTCW 231340Z 2315/2324 VRB02KT 9999 SCT035

Weather observations and forecasts of more than 4000 airports (METAR and TAF reports).

The available stations are represented by yellow and red dots on the map.

Hover mouse over dot to see the name of the station.

Then click to see weather observations and forecasts.

To change the map : click on the green buttons with a black cross to zoom in, on the green button with a dash to zoom out, or on the green arrows for adjacent maps.


METAR-TAF: